sensor_id;sensor_type;location;lat;lon;timestamp;pressure;altitude;pressure_sealevel;temperature;humidity
21588;BME280;10956;48.878;13.316;2023-03-12T00:01:13;93704.97;;;-1.53;100.00
21588;BME280;10956;48.878;13.316;2023-03-12T00:03:39;93701.81;;;-1.55;100.00
21588;BME280;10956;48.878;13.316;2023-03-12T00:06:05;93706.38;;;-1.57;100.00
21588;BME280;10956;48.878;13.316;2023-03-12T00:08:30;93707.78;;;-1.61;100.00
21588;BME280;10956;48.878;13.316;2023-03-12T00:10:56;93717.53;;;-1.70;100.00
21588;BME280;10956;48.878;13.316;2023-03-12T00:13:21;93722.50;;;-1.69;100.00
21588;BME280;10956;48.878;13.316;2023-03-12T00:15:46;93716.94;;;-1.72;100.00
21588;BME280;10956;48.878;13.316;2023-03-12T00:18:12;93728.47;;;-1.75;100.00
21588;BME280;10956;48.878;13.316;2023-03-12T00:20:37;93718.94;;;-1.74;100.00
21588;BME280;10956;48.878;13.316;2023-03-12T00:23:03;93727.69;;;-1.75;100.00
21588;BME280;10956;48.878;13.316;2023-03-12T00:25:28;93728.09;;;-1.78;100.00
21588;BME280;10956;48.878;13.316;2023-03-12T00:27:53;93723.72;;;-1.78;100.00
21588;BME280;10956;48.878;13.316;2023-03-12T00:30:19;93718.56;;;-1.84;100.00
21588;BME280;10956;48.878;13.316;2023-03-12T00:32:45;93725.31;;;-1.90;100.00
21588;BME280;10956;48.878;13.316;2023-03-12T00:35:10;93721.75;;;-2.02;100.00
21588;BME280;10956;48.878;13.316;2023-03-12T00:37:37;93725.34;;;-2.03;100.00
21588;BME280;10956;48.878;13.316;2023-03-12T00:40:04;93719.78;;;-2.13;100.00
21588;BME280;10956;48.878;13.316;2023-03-12T00:42:31;93716.63;;;-2.15;100.00
21588;BME280;10956;48.878;13.316;2023-03-12T00:44:56;93714.63;;;-2.13;100.00
21588;BME280;10956;48.878;13.316;2023-03-12T00:47:21;93720.97;;;-2.09;100.00
21588;BME280;10956;48.878;13.316;2023-03-12T00:49:47;93720.59;;;-2.19;100.00
21588;BME280;10956;48.878;13.316;2023-03-12T00:52:12;93719.97;;;-2.21;100.00
21588;BME280;10956;48.878;13.316;2023-03-12T00:54:38;93731.69;;;-2.25;100.00
21588;BME280;10956;48.878;13.316;2023-03-12T00:57:03;93726.13;;;-2.22;100.00
21588;BME280;10956;48.878;13.316;2023-03-12T00:59:30;93717.00;;;-2.25;100.00
21588;BME280;10956;48.878;13.316;2023-03-12T01:01:56;93727.53;;;-2.26;100.00
21588;BME280;10956;48.878;13.316;2023-03-12T01:04:21;93720.97;;;-2.29;100.00
21588;BME280;10956;48.878;13.316;2023-03-12T01:06:46;93725.75;;;-2.33;100.00
21588;BME280;10956;48.878;13.316;2023-03-12T01:09:12;93722.97;;;-2.38;100.00
21588;BME280;10956;48.878;13.316;2023-03-12T01:11:37;93730.09;;;-2.40;100.00
21588;BME280;10956;48.878;13.316;2023-03-12T01:14:04;93726.94;;;-2.42;100.00
21588;BME280;10956;48.878;13.316;2023-03-12T01:16:30;93727.31;;;-2.38;100.00
21588;BME280;10956;48.878;13.316;2023-03-12T01:18:57;93728.72;;;-2.36;100.00
21588;BME280;10956;48.878;13.316;2023-03-12T01:21:23;93734.88;;;-2.37;100.00
21588;BME280;10956;48.878;13.316;2023-03-12T01:23:49;93736.84;;;-2.39;100.00
21588;BME280;10956;48.878;13.316;2023-03-12T01:26:15;93740.63;;;-2.48;100.00
21588;BME280;10956;48.878;13.316;2023-03-12T01:28:40;93736.44;;;-2.49;100.00
21588;BME280;10956;48.878;13.316;2023-03-12T01:31:11;93736.44;;;-2.49;100.00
21588;BME280;10956;48.878;13.316;2023-03-12T01:33:38;93736.44;;;-2.49;100.00
21588;BME280;10956;48.878;13.316;2023-03-12T01:36:04;93740.41;;;-2.46;100.00
21588;BME280;10956;48.878;13.316;2023-03-12T01:38:30;93739.63;;;-2.47;100.00
21588;BME280;10956;48.878;13.316;2023-03-12T01:40:55;93743.19;;;-2.48;100.00
21588;BME280;10956;48.878;13.316;2023-03-12T01:43:32;93743.19;;;-2.48;100.00
21588;BME280;10956;48.878;13.316;2023-03-12T01:48:50;93734.88;;;-2.50;100.00
21588;BME280;10956;48.878;13.316;2023-03-12T01:51:18;93739.41;;;-2.52;100.00
21588;BME280;10956;48.878;13.316;2023-03-12T01:53:47;93734.44;;;-2.60;100.00
21588;BME280;10956;48.878;13.316;2023-03-12T01:56:15;93739.59;;;-2.60;100.00
21588;BME280;10956;48.878;13.316;2023-03-12T01:58:45;93741.59;;;-2.62;100.00
21588;BME280;10956;48.878;13.316;2023-03-12T02:01:13;93741.19;;;-2.66;100.00
21588;BME280;10956;48.878;13.316;2023-03-12T02:03:40;93739.59;;;-2.67;100.00
21588;BME280;10956;48.878;13.316;2023-03-12T02:06:11;93744.56;;;-2.65;100.00
21588;BME280;10956;48.878;13.316;2023-03-12T02:08:43;93743.19;;;-2.61;100.00
21588;BME280;10956;48.878;13.316;2023-03-12T02:11:09;93736.25;;;-2.61;100.00
21588;BME280;10956;48.878;13.316;2023-03-12T02:13:35;93741.59;;;-2.62;100.00
21588;BME280;10956;48.878;13.316;2023-03-12T02:16:01;93735.22;;;-2.66;100.00
21588;BME280;10956;48.878;13.316;2023-03-12T02:18:27;93735.22;;;-2.66;100.00
21588;BME280;10956;48.878;13.316;2023-03-12T02:21:19;93735.63;;;-2.69;100.00
21588;BME280;10956;48.878;13.316;2023-03-12T02:24:13;93739.56;;;-2.80;100.00
21588;BME280;10956;48.878;13.316;2023-03-12T02:26:39;93743.13;;;-2.87;100.00
21588;BME280;10956;48.878;13.316;2023-03-12T02:29:06;93744.69;;;-2.93;100.00
21588;BME280;10956;48.878;13.316;2023-03-12T02:31:37;93749.06;;;-2.94;100.00
21588;BME280;10956;48.878;13.316;2023-03-12T02:34:04;93752.22;;;-2.98;100.00
21588;BME280;10956;48.878;13.316;2023-03-12T02:36:30;93750.81;;;-3.01;100.00
21588;BME280;10956;48.878;13.316;2023-03-12T02:38:55;93748.63;;;-3.04;100.00
21588;BME280;10956;48.878;13.316;2023-03-12T02:41:24;93746.66;;;-3.02;100.00
21588;BME280;10956;48.878;13.316;2023-03-12T02:44:07;93739.91;;;-3.03;100.00
21588;BME280;10956;48.878;13.316;2023-03-12T02:46:39;93750.19;;;-3.09;100.00
21588;BME280;10956;48.878;13.316;2023-03-12T02:49:05;93752.34;;;-3.13;100.00
21588;BME280;10956;48.878;13.316;2023-03-12T02:51:30;93753.34;;;-3.14;100.00
21588;BME280;10956;48.878;13.316;2023-03-12T02:53:56;93754.56;;;-3.10;100.00
21588;BME280;10956;48.878;13.316;2023-03-12T02:56:22;93742.47;;;-3.09;100.00
21588;BME280;10956;48.878;13.316;2023-03-12T02:58:48;93752.34;;;-3.13;100.00
21588;BME280;10956;48.878;13.316;2023-03-12T03:01:14;93754.91;;;-3.19;100.00
21588;BME280;10956;48.878;13.316;2023-03-12T03:03:39;93759.66;;;-3.23;100.00
21588;BME280;10956;48.878;13.316;2023-03-12T03:06:05;93753.50;;;-3.22;100.00
21588;BME280;10956;48.878;13.316;2023-03-12T03:08:30;93757.69;;;-3.21;100.00
21588;BME280;10956;48.878;13.316;2023-03-12T03:10:56;93753.31;;;-3.20;100.00
21588;BME280;10956;48.878;13.316;2023-03-12T03:13:21;93757.69;;;-3.21;100.00
21588;BME280;10956;48.878;13.316;2023-03-12T03:15:46;93764.03;;;-3.17;100.00
21588;BME280;10956;48.878;13.316;2023-03-12T03:18:12;93765.25;;;-3.13;100.00
21588;BME280;10956;48.878;13.316;2023-03-12T03:20:37;93774.19;;;-3.09;100.00
21588;BME280;10956;48.878;13.316;2023-03-12T03:23:03;93781.91;;;-3.09;100.00
21588;BME280;10956;48.878;13.316;2023-03-12T03:25:28;93789.84;;;-3.10;100.00
21588;BME280;10956;48.878;13.316;2023-03-12T03:27:54;93782.31;;;-3.12;100.00
21588;BME280;10956;48.878;13.316;2023-03-12T03:30:20;93785.47;;;-3.10;100.00
21588;BME280;10956;48.878;13.316;2023-03-12T03:32:47;93789.06;;;-3.11;100.00
21588;BME280;10956;48.878;13.316;2023-03-12T03:35:12;93789.84;;;-3.10;100.00
21588;BME280;10956;48.878;13.316;2023-03-12T03:37:38;93791.81;;;-3.12;100.00
21588;BME280;10956;48.878;13.316;2023-03-12T03:40:04;93793.03;;;-3.08;100.00
21588;BME280;10956;48.878;13.316;2023-03-12T03:42:29;93801.16;;;-3.05;100.00
21588;BME280;10956;48.878;13.316;2023-03-12T03:44:55;93803.69;;;-3.18;100.00
21588;BME280;10956;48.878;13.316;2023-03-12T03:47:20;93808.41;;;-3.28;100.00
21588;BME280;10956;48.878;13.316;2023-03-12T03:49:46;93805.22;;;-3.30;100.00
21588;BME280;10956;48.878;13.316;2023-03-12T03:52:11;93802.03;;;-3.32;100.00
21588;BME280;10956;48.878;13.316;2023-03-12T03:54:36;93806.81;;;-3.29;100.00
21588;BME280;10956;48.878;13.316;2023-03-12T03:57:02;93808.00;;;-3.25;100.00
21588;BME280;10956;48.878;13.316;2023-03-12T03:59:27;93797.31;;;-3.22;100.00
21588;BME280;10956;48.878;13.316;2023-03-12T04:01:53;93801.88;;;-3.24;100.00
21588;BME280;10956;48.878;13.316;2023-03-12T04:04:18;93802.47;;;-3.22;100.00
21588;BME280;10956;48.878;13.316;2023-03-12T04:06:44;93805.44;;;-3.25;100.00
21588;BME280;10956;48.878;13.316;2023-03-12T04:09:09;93811.56;;;-3.26;100.00
21588;BME280;10956;48.878;13.316;2023-03-12T04:11:35;93806.81;;;-3.29;100.00
21588;BME280;10956;48.878;13.316;2023-03-12T04:14:00;93807.41;;;-3.27;100.00
21588;BME280;10956;48.878;13.316;2023-03-12T04:16:25;93816.34;;;-3.23;100.00
21588;BME280;10956;48.878;13.316;2023-03-12T04:18:51;93801.50;;;-3.21;100.00
21588;BME280;10956;48.878;13.316;2023-03-12T04:21:16;93814.59;;;-3.16;100.00
21588;BME280;10956;48.878;13.316;2023-03-12T04:23:42;93806.47;;;-3.13;100.00
21588;BME280;10956;48.878;13.316;2023-03-12T04:26:07;93811.25;;;-3.10;100.00
21588;BME280;10956;48.878;13.316;2023-03-12T04:28:34;93809.28;;;-3.08;100.00
21588;BME280;10956;48.878;13.316;2023-03-12T04:31:03;93817.63;;;-3.06;100.00
21588;BME280;10956;48.878;13.316;2023-03-12T04:33:32;93816.03;;;-3.07;100.00
21588;BME280;10956;48.878;13.316;2023-03-12T04:35:58;93814.78;;;-3.17;100.00
21588;BME280;10956;48.878;13.316;2023-03-12T04:38:26;93821.50;;;-3.23;100.00
21588;BME280;10956;48.878;13.316;2023-03-12T04:41:06;93823.84;;;-3.28;100.00
21588;BME280;10956;48.878;13.316;2023-03-12T04:43:32;93824.63;;;-3.34;100.00
21588;BME280;10956;48.878;13.316;2023-03-12T04:45:57;93831.13;;;-3.38;100.00
21588;BME280;10956;48.878;13.316;2023-03-12T04:48:24;93832.91;;;-3.39;100.00
21588;BME280;10956;48.878;13.316;2023-03-12T04:50:50;93826.19;;;-3.33;100.00
21588;BME280;10956;48.878;13.316;2023-03-12T04:53:15;93836.13;;;-3.30;100.00
21588;BME280;10956;48.878;13.316;2023-03-12T04:55:41;93834.56;;;-3.24;100.00
21588;BME280;10956;48.878;13.316;2023-03-12T04:58:07;93838.94;;;-3.25;100.00
21588;BME280;10956;48.878;13.316;2023-03-12T05:00:32;93838.56;;;-3.22;100.00
21588;BME280;10956;48.878;13.316;2023-03-12T05:02:58;93825.50;;;-3.14;100.00
21588;BME280;10956;48.878;13.316;2023-03-12T05:05:23;93838.63;;;-3.09;100.00
21588;BME280;10956;48.878;13.316;2023-03-12T05:07:49;93829.13;;;-3.02;100.00
21588;BME280;10956;48.878;13.316;2023-03-12T05:10:14;93827.97;;;-2.99;100.00
21588;BME280;10956;48.878;13.316;2023-03-12T05:12:40;93830.56;;;-2.92;100.00
21588;BME280;10956;48.878;13.316;2023-03-12T05:15:05;93839.91;;;-2.85;100.00
21588;BME280;10956;48.878;13.316;2023-03-12T05:17:31;93832.41;;;-2.80;100.00
21588;BME280;10956;48.878;13.316;2023-03-12T05:19:56;93829.25;;;-2.75;100.00
21588;BME280;10956;48.878;13.316;2023-03-12T05:22:22;93835.41;;;-2.76;100.00
21588;BME280;10956;48.878;13.316;2023-03-12T05:24:47;93837.97;;;-2.76;100.00
21588;BME280;10956;48.878;13.316;2023-03-12T05:27:13;93845.53;;;-2.68;100.00
21588;BME280;10956;48.878;13.316;2023-03-12T05:29:38;93838.81;;;-2.63;100.00
21588;BME280;10956;48.878;13.316;2023-03-12T05:32:04;93842.41;;;-2.57;100.00
21588;BME280;10956;48.878;13.316;2023-03-12T05:34:30;93839.22;;;-2.59;100.00
21588;BME280;10956;48.878;13.316;2023-03-12T05:36:58;93834.88;;;-2.52;100.00
21588;BME280;10956;48.878;13.316;2023-03-12T05:39:24;93836.69;;;-2.46;100.00
21588;BME280;10956;48.878;13.316;2023-03-12T05:41:50;93837.69;;;-2.40;100.00
21588;BME280;10956;48.878;13.316;2023-03-12T05:44:20;93828.75;;;-2.38;100.00
21588;BME280;10956;48.878;13.316;2023-03-12T05:46:45;93838.50;;;-2.33;100.00
21588;BME280;10956;48.878;13.316;2023-03-12T05:49:11;93835.72;;;-2.32;100.00
21588;BME280;10956;48.878;13.316;2023-03-12T05:51:36;93832.16;;;-2.31;100.00
21588;BME280;10956;48.878;13.316;2023-03-12T05:54:02;93833.94;;;-2.31;100.00
21588;BME280;10956;48.878;13.316;2023-03-12T05:56:28;93834.16;;;-2.26;100.00
21588;BME280;10956;48.878;13.316;2023-03-12T05:58:53;93838.91;;;-2.30;100.00
21588;BME280;10956;48.878;13.316;2023-03-12T06:01:22;93830.16;;;-2.29;100.00
21588;BME280;10956;48.878;13.316;2023-03-12T06:03:48;93838.50;;;-2.26;100.00
21588;BME280;10956;48.878;13.316;2023-03-12T06:06:14;93833.97;;;-2.18;100.00
21588;BME280;10956;48.878;13.316;2023-03-12T06:08:40;93831.00;;;-2.08;100.00
21588;BME280;10956;48.878;13.316;2023-03-12T06:11:06;93829.00;;;-2.00;100.00
21588;BME280;10956;48.878;13.316;2023-03-12T06:13:32;93835.78;;;-1.92;100.00
21588;BME280;10956;48.878;13.316;2023-03-12T06:16:16;93843.31;;;-1.84;100.00
21588;BME280;10956;48.878;13.316;2023-03-12T06:18:42;93844.13;;;-1.77;100.00
21588;BME280;10956;48.878;13.316;2023-03-12T06:23:37;93844.91;;;-1.63;100.00
21588;BME280;10956;48.878;13.316;2023-03-12T06:26:03;93838.56;;;-1.60;100.00
21588;BME280;10956;48.878;13.316;2023-03-12T06:28:29;93842.53;;;-1.51;100.00
21588;BME280;10956;48.878;13.316;2023-03-12T06:30:54;93844.50;;;-1.40;100.00
21588;BME280;10956;48.878;13.316;2023-03-12T06:33:20;93845.28;;;-1.33;100.00
21588;BME280;10956;48.878;13.316;2023-03-12T06:35:46;93841.91;;;-1.27;100.00
21588;BME280;10956;48.878;13.316;2023-03-12T06:38:12;93845.25;;;-1.20;100.00
21588;BME280;10956;48.878;13.316;2023-03-12T06:40:37;93840.28;;;-1.15;100.00
21588;BME280;10956;48.878;13.316;2023-03-12T06:43:03;93849.63;;;-1.07;100.00
21588;BME280;10956;48.878;13.316;2023-03-12T06:45:29;93849.63;;;-1.07;100.00
21588;BME280;10956;48.878;13.316;2023-03-12T06:47:54;93851.22;;;-1.13;100.00
21588;BME280;10956;48.878;13.316;2023-03-12T06:50:20;93855.19;;;-1.10;100.00
21588;BME280;10956;48.878;13.316;2023-03-12T06:52:45;93850.00;;;-1.04;100.00
21588;BME280;10956;48.878;13.316;2023-03-12T06:55:11;93857.13;;;-0.92;100.00
21588;BME280;10956;48.878;13.316;2023-03-12T06:57:36;93855.91;;;-0.83;99.96
21588;BME280;10956;48.878;13.316;2023-03-12T07:00:03;93859.66;;;-0.66;99.54
21588;BME280;10956;48.878;13.316;2023-03-12T07:02:29;93867.75;;;-0.56;98.89
21588;BME280;10956;48.878;13.316;2023-03-12T07:04:54;93860.75;;;-0.42;98.83
21588;BME280;10956;48.878;13.316;2023-03-12T07:07:20;93855.28;;;-0.27;98.09
21588;BME280;10956;48.878;13.316;2023-03-12T07:09:45;93848.03;;;-0.12;97.65
21588;BME280;10956;48.878;13.316;2023-03-12T07:12:11;93847.97;;;0.01;97.17
21588;BME280;10956;48.878;13.316;2023-03-12T07:14:36;93855.84;;;0.13;96.67
21588;BME280;10956;48.878;13.316;2023-03-12T07:17:02;93853.22;;;0.19;96.54
21588;BME280;10956;48.878;13.316;2023-03-12T07:19:28;93846.78;;;0.28;96.13
21588;BME280;10956;48.878;13.316;2023-03-12T07:21:55;93849.53;;;0.34;96.21
21588;BME280;10956;48.878;13.316;2023-03-12T07:24:21;93858.03;;;0.41;96.01
21588;BME280;10956;48.878;13.316;2023-03-12T07:26:47;93852.38;;;0.50;95.96
21588;BME280;10956;48.878;13.316;2023-03-12T07:29:12;93850.03;;;0.67;95.50
21588;BME280;10956;48.878;13.316;2023-03-12T07:31:37;93851.09;;;0.84;94.83
21588;BME280;10956;48.878;13.316;2023-03-12T07:34:03;93851.25;;;0.89;94.41
21588;BME280;10956;48.878;13.316;2023-03-12T07:36:30;93852.09;;;0.83;94.66
21588;BME280;10956;48.878;13.316;2023-03-12T07:38:55;93847.34;;;0.80;95.05
21588;BME280;10956;48.878;13.316;2023-03-12T07:41:21;93852.41;;;0.93;94.95
21588;BME280;10956;48.878;13.316;2023-03-12T07:43:46;93851.84;;;1.10;94.19
21588;BME280;10956;48.878;13.316;2023-03-12T07:46:12;93863.38;;;1.14;94.12
21588;BME280;10956;48.878;13.316;2023-03-12T07:48:37;93859.47;;;1.05;94.62
21588;BME280;10956;48.878;13.316;2023-03-12T07:51:04;93861.75;;;0.94;95.45
21588;BME280;10956;48.878;13.316;2023-03-12T07:53:29;93863.31;;;0.77;96.97
21588;BME280;10956;48.878;13.316;2023-03-12T07:55:55;93858.56;;;0.74;97.73
21588;BME280;10956;48.878;13.316;2023-03-12T07:58:20;93865.69;;;0.79;97.71
21588;BME280;10956;48.878;13.316;2023-03-12T08:00:46;93872.31;;;0.75;98.18
21588;BME280;10956;48.878;13.316;2023-03-12T08:03:11;93877.72;;;0.73;98.31
21588;BME280;10956;48.878;13.316;2023-03-12T08:05:37;93871.38;;;0.69;99.24
21588;BME280;10956;48.878;13.316;2023-03-12T08:08:02;93871.38;;;0.69;99.61
21588;BME280;10956;48.878;13.316;2023-03-12T08:10:28;93872.16;;;0.70;99.96
21588;BME280;10956;48.878;13.316;2023-03-12T08:12:53;93873.75;;;0.71;99.97
21588;BME280;10956;48.878;13.316;2023-03-12T08:15:19;93874.19;;;0.68;100.00
21588;BME280;10956;48.878;13.316;2023-03-12T08:17:44;93870.38;;;0.70;100.00
21588;BME280;10956;48.878;13.316;2023-03-12T08:20:10;93864.06;;;0.84;99.93
21588;BME280;10956;48.878;13.316;2023-03-12T08:22:37;93868.25;;;1.04;99.41
21588;BME280;10956;48.878;13.316;2023-03-12T08:25:04;93864.88;;;1.21;98.36
21588;BME280;10956;48.878;13.316;2023-03-12T08:27:29;93869.50;;;1.38;97.31
21588;BME280;10956;48.878;13.316;2023-03-12T08:29:55;93857.81;;;1.47;96.88
21588;BME280;10956;48.878;13.316;2023-03-12T08:32:20;93857.59;;;1.48;96.41
21588;BME280;10956;48.878;13.316;2023-03-12T08:34:46;93856.22;;;1.46;96.58
21588;BME280;10956;48.878;13.316;2023-03-12T08:37:11;93857.31;;;1.56;96.68
21588;BME280;10956;48.878;13.316;2023-03-12T08:39:37;93861.63;;;1.63;96.00
21588;BME280;10956;48.878;13.316;2023-03-12T08:42:02;93868.41;;;1.64;96.19
21588;BME280;10956;48.878;13.316;2023-03-12T08:44:30;93872.56;;;1.83;95.56
21588;BME280;10956;48.878;13.316;2023-03-12T08:46:55;93868.78;;;1.97;94.82
21588;BME280;10956;48.878;13.316;2023-03-12T08:49:21;93865.44;;;2.08;94.58
21588;BME280;10956;48.878;13.316;2023-03-12T08:51:47;93871.31;;;2.15;93.94
21588;BME280;10956;48.878;13.316;2023-03-12T08:54:13;93873.78;;;2.10;94.34
21588;BME280;10956;48.878;13.316;2023-03-12T08:56:38;93868.94;;;2.14;94.11
21588;BME280;10956;48.878;13.316;2023-03-12T08:59:08;93860.38;;;2.25;93.73
21588;BME280;10956;48.878;13.316;2023-03-12T09:01:34;93860.28;;;2.32;92.68
21588;BME280;10956;48.878;13.316;2023-03-12T09:04:00;93860.63;;;2.35;92.31
21588;BME280;10956;48.878;13.316;2023-03-12T09:06:26;93860.28;;;2.32;91.55
21588;BME280;10956;48.878;13.316;2023-03-12T09:08:52;93868.34;;;2.42;91.87
21588;BME280;10956;48.878;13.316;2023-03-12T09:11:17;93868.78;;;2.39;91.44
21588;BME280;10956;48.878;13.316;2023-03-12T09:13:43;93863.25;;;2.47;91.89
21588;BME280;10956;48.878;13.316;2023-03-12T09:16:09;93869.94;;;2.54;91.84
21588;BME280;10956;48.878;13.316;2023-03-12T09:18:34;93861.38;;;2.66;91.49
21588;BME280;10956;48.878;13.316;2023-03-12T09:21:00;93868.72;;;2.80;90.51
21588;BME280;10956;48.878;13.316;2023-03-12T09:23:26;93868.75;;;3.04;89.77
21588;BME280;10956;48.878;13.316;2023-03-12T09:25:52;93863.53;;;3.27;88.63
21588;BME280;10956;48.878;13.316;2023-03-12T09:28:18;93862.56;;;3.56;87.71
21588;BME280;10956;48.878;13.316;2023-03-12T09:30:44;93858.00;;;3.64;85.56
21588;BME280;10956;48.878;13.316;2023-03-12T09:33:09;93851.97;;;3.75;84.53
21588;BME280;10956;48.878;13.316;2023-03-12T09:35:35;93848.91;;;3.78;84.43
21588;BME280;10956;48.878;13.316;2023-03-12T09:38:02;93852.44;;;4.00;84.31
21588;BME280;10956;48.878;13.316;2023-03-12T09:40:32;93843.03;;;4.28;83.65
21588;BME280;10956;48.878;13.316;2023-03-12T09:43:02;93851.75;;;4.50;82.65
21588;BME280;10956;48.878;13.316;2023-03-12T09:45:34;93850.56;;;4.74;81.09
21588;BME280;10956;48.878;13.316;2023-03-12T09:48:04;93852.72;;;4.77;79.70
21588;BME280;10956;48.878;13.316;2023-03-12T09:50:38;93857.69;;;4.79;79.87
21588;BME280;10956;48.878;13.316;2023-03-12T09:55:43;93858.16;;;5.09;80.20
21588;BME280;10956;48.878;13.316;2023-03-12T09:58:29;93865.81;;;5.16;79.42
21588;BME280;10956;48.878;13.316;2023-03-12T10:04:15;93868.41;;;5.16;79.47
21588;BME280;10956;48.878;13.316;2023-03-12T10:13:01;93860.28;;;4.96;78.68
21588;BME280;10956;48.878;13.316;2023-03-12T10:16:15;93854.25;;;5.12;78.89
21588;BME280;10956;48.878;13.316;2023-03-12T10:21:31;93845.75;;;5.38;76.23
21588;BME280;10956;48.878;13.316;2023-03-12T10:24:21;93854.66;;;5.42;77.04
21588;BME280;10956;48.878;13.316;2023-03-12T10:26:54;93863.72;;;5.35;76.21
21588;BME280;10956;48.878;13.316;2023-03-12T10:29:29;93862.50;;;5.42;76.62
21588;BME280;10956;48.878;13.316;2023-03-12T10:32:16;93867.13;;;5.35;76.59
21588;BME280;10956;48.878;13.316;2023-03-12T10:34:49;93871.94;;;5.43;76.84
21588;BME280;10956;48.878;13.316;2023-03-12T10:39:47;93866.84;;;5.54;76.29
21588;BME280;10956;48.878;13.316;2023-03-12T10:42:21;93871.13;;;5.43;75.54
21588;BME280;10956;48.878;13.316;2023-03-12T10:44:51;93863.06;;;5.44;76.70
21588;BME280;10956;48.878;13.316;2023-03-12T10:47:34;93863.09;;;5.28;76.56
21588;BME280;10956;48.878;13.316;2023-03-12T10:52:46;93862.09;;;5.50;76.38
21588;BME280;10956;48.878;13.316;2023-03-12T10:55:22;93859.25;;;5.52;75.98
21588;BME280;10956;48.878;13.316;2023-03-12T10:57:48;93861.97;;;5.40;76.51
21588;BME280;10956;48.878;13.316;2023-03-12T11:00:25;93863.91;;;5.50;76.60
21588;BME280;10956;48.878;13.316;2023-03-12T11:05:45;93859.66;;;5.66;76.83
21588;BME280;10956;48.878;13.316;2023-03-12T11:08:34;93855.72;;;5.85;76.26
21588;BME280;10956;48.878;13.316;2023-03-12T11:11:01;93858.41;;;5.90;76.28
21588;BME280;10956;48.878;13.316;2023-03-12T11:13:40;93861.03;;;5.90;76.67
21588;BME280;10956;48.878;13.316;2023-03-12T11:18:53;93861.06;;;5.73;77.25
21588;BME280;10956;48.878;13.316;2023-03-12T11:21:20;93868.19;;;5.78;77.78
21588;BME280;10956;48.878;13.316;2023-03-12T11:24:04;93876.59;;;6.02;77.16
21588;BME280;10956;48.878;13.316;2023-03-12T11:26:35;93872.69;;;6.04;76.34
21588;BME280;10956;48.878;13.316;2023-03-12T11:29:06;93878.13;;;5.98;76.56
21588;BME280;10956;48.878;13.316;2023-03-12T11:31:38;93881.47;;;5.93;77.22
21588;BME280;10956;48.878;13.316;2023-03-12T11:34:11;93880.19;;;5.96;77.15
21588;BME280;10956;48.878;13.316;2023-03-12T11:36:50;93884.09;;;5.93;76.71
21588;BME280;10956;48.878;13.316;2023-03-12T11:40:17;93880.00;;;6.02;76.62
21588;BME280;10956;48.878;13.316;2023-03-12T11:43:03;93867.47;;;6.04;76.59
21588;BME280;10956;48.878;13.316;2023-03-12T11:51:30;93870.34;;;6.03;77.58
21588;BME280;10956;48.878;13.316;2023-03-12T11:54:40;93870.53;;;5.96;77.00
21588;BME280;10956;48.878;13.316;2023-03-12T12:00:17;93870.84;;;5.83;77.56
21588;BME280;10956;48.878;13.316;2023-03-12T12:02:48;93861.38;;;5.77;77.59
21588;BME280;10956;48.878;13.316;2023-03-12T12:16:38;93865.88;;;5.60;78.18
21588;BME280;10956;48.878;13.316;2023-03-12T12:22:22;93874.34;;;5.28;80.21
21588;BME280;10956;48.878;13.316;2023-03-12T12:28:05;93866.78;;;5.10;80.94
21588;BME280;10956;48.878;13.316;2023-03-12T12:30:39;93869.78;;;5.02;81.35
21588;BME280;10956;48.878;13.316;2023-03-12T12:33:25;93870.91;;;4.89;81.76
21588;BME280;10956;48.878;13.316;2023-03-12T12:35:54;93859.97;;;4.75;82.55
21588;BME280;10956;48.878;13.316;2023-03-12T12:38:30;93869.16;;;4.61;83.32
21588;BME280;10956;48.878;13.316;2023-03-12T12:44:13;93871.50;;;4.46;83.72
21588;BME280;10956;48.878;13.316;2023-03-12T12:46:49;93871.50;;;4.46;83.89
21588;BME280;10956;48.878;13.316;2023-03-12T12:52:07;93869.47;;;4.48;84.34
21588;BME280;10956;48.878;13.316;2023-03-12T12:54:54;93867.56;;;4.43;85.24
21588;BME280;10956;48.878;13.316;2023-03-12T12:57:44;93861.06;;;4.29;87.06
21588;BME280;10956;48.878;13.316;2023-03-12T13:00:52;93862.44;;;4.20;88.24
21588;BME280;10956;48.878;13.316;2023-03-12T13:03:23;93853.56;;;4.04;90.40
21588;BME280;10956;48.878;13.316;2023-03-12T13:05:59;93856.44;;;3.91;92.12
21588;BME280;10956;48.878;13.316;2023-03-12T13:11:03;93853.84;;;3.91;92.98
21588;BME280;10956;48.878;13.316;2023-03-12T13:13:29;93854.50;;;3.98;92.97
21588;BME280;10956;48.878;13.316;2023-03-12T13:19:23;93850.88;;;3.99;95.43
21588;BME280;10956;48.878;13.316;2023-03-12T13:21:59;93854.03;;;4.01;95.86
21588;BME280;10956;48.878;13.316;2023-03-12T13:24:55;93852.00;;;4.03;96.22
21588;BME280;10956;48.878;13.316;2023-03-12T13:27:23;93848.34;;;4.04;96.23
21588;BME280;10956;48.878;13.316;2023-03-12T13:29:50;93851.16;;;4.14;95.82
21588;BME280;10956;48.878;13.316;2023-03-12T13:34:59;93854.69;;;4.08;97.23
21588;BME280;10956;48.878;13.316;2023-03-12T13:43:31;93863.03;;;3.94;98.24
21588;BME280;10956;48.878;13.316;2023-03-12T13:48:46;93857.19;;;3.75;99.85
21588;BME280;10956;48.878;13.316;2023-03-12T13:51:19;93857.75;;;3.77;100.00
21588;BME280;10956;48.878;13.316;2023-03-12T13:53:52;93853.56;;;3.76;100.00
21588;BME280;10956;48.878;13.316;2023-03-12T13:56:24;93848.91;;;3.78;100.00
21588;BME280;10956;48.878;13.316;2023-03-12T13:59:02;93851.41;;;3.73;100.00
21588;BME280;10956;48.878;13.316;2023-03-12T14:01:50;93850.75;;;3.66;100.00
21588;BME280;10956;48.878;13.316;2023-03-12T14:04:24;93851.31;;;3.68;100.00
21588;BME280;10956;48.878;13.316;2023-03-12T14:07:20;93855.03;;;3.72;100.00
21588;BME280;10956;48.878;13.316;2023-03-12T14:10:02;93854.59;;;3.75;100.00
21588;BME280;10956;48.878;13.316;2023-03-12T14:18:14;93845.75;;;3.76;100.00
21588;BME280;10956;48.878;13.316;2023-03-12T14:20:51;93852.53;;;3.77;100.00
21588;BME280;10956;48.878;13.316;2023-03-12T14:23:18;93836.91;;;3.77;100.00